AXM110 OJAQ-HESH
Flight info
| Callsign | AXM110 |
|---|---|
| Flight time | 0h 32m |
| Altitude | 14000 |
| Route | DCT EILOT DCT DELNA DCT |
| Aircraft | A333/H-V/N |
Departure
| Time | 2026-05-05 14:35 |
|---|---|
| Airport | King Hussein International Airport (OJAQ) |
Arrival
| Time | 2026-05-05 15:07 |
|---|---|
| Airport | Sharm El Sheikh International Airport (HESH) |
| Time | Latitude | Longitude | Altitude | Speed | Heading |
|---|---|---|---|---|---|
| 2026-05-05 14:17 | 29.60969 | 35.02005 | 180 ft | 0 kts | 107° |
| 2026-05-05 14:25 | 29.60970 | 35.02005 | 180 ft | 0 kts | 107° |
| 2026-05-05 14:26 | 29.60972 | 35.01995 | 180 ft | 2 kts | 107° |
| 2026-05-05 14:26 | 29.60980 | 35.01967 | 178 ft | 4 kts | 107° |
| 2026-05-05 14:26 | 29.60989 | 35.01935 | 177 ft | 4 kts | 107° |
| 2026-05-05 14:26 | 29.60995 | 35.01910 | 176 ft | 0 kts | 109° |
| 2026-05-05 14:30 | 29.60965 | 35.01937 | 177 ft | 16 kts | 168° |
| 2026-05-05 14:31 | 29.60877 | 35.01903 | 178 ft | 6 kts | 201° |
| 2026-05-05 14:31 | 29.60836 | 35.01886 | 178 ft | 7 kts | 197° |
| 2026-05-05 14:31 | 29.60777 | 35.01865 | 179 ft | 10 kts | 197° |
| 2026-05-05 14:31 | 29.60704 | 35.01839 | 183 ft | 11 kts | 197° |
| 2026-05-05 14:32 | 29.60625 | 35.01810 | 187 ft | 12 kts | 197° |
| 2026-05-05 14:32 | 29.60542 | 35.01784 | 192 ft | 12 kts | 194° |
| 2026-05-05 14:32 | 29.60458 | 35.01756 | 198 ft | 12 kts | 196° |
| 2026-05-05 14:32 | 29.60377 | 35.01728 | 203 ft | 12 kts | 197° |
| 2026-05-05 14:33 | 29.60288 | 35.01698 | 206 ft | 14 kts | 197° |
| 2026-05-05 14:33 | 29.60175 | 35.01658 | 207 ft | 18 kts | 197° |
| 2026-05-05 14:33 | 29.60034 | 35.01608 | 207 ft | 23 kts | 197° |
| 2026-05-05 14:33 | 29.59862 | 35.01551 | 207 ft | 28 kts | 197° |
| 2026-05-05 14:34 | 29.59807 | 35.01399 | 199 ft | 26 kts | 301° |
| 2026-05-05 14:34 | 29.59988 | 35.01395 | 198 ft | 29 kts | 15° |
| 2026-05-05 14:34 | 29.60247 | 35.01484 | 193 ft | 63 kts | 16° |
| 2026-05-05 14:34 | 29.60908 | 35.01716 | 172 ft | 132 kts | 17° |
| 2026-05-05 14:35 | 29.61957 | 35.02088 | 235 ft | 178 kts | 17° |
| 2026-05-05 14:35 | 29.63123 | 35.02465 | 999 ft | 175 kts | 10° |
| 2026-05-05 14:35 | 29.64289 | 35.02491 | 1843 ft | 169 kts | 341° |
| 2026-05-05 14:35 | 29.65130 | 35.01663 | 2645 ft | 167 kts | 294° |
| 2026-05-05 14:36 | 29.65078 | 35.00345 | 3384 ft | 174 kts | 244° |
| 2026-05-05 14:36 | 29.64198 | 34.99382 | 3818 ft | 183 kts | 210° |
| 2026-05-05 14:36 | 29.62963 | 34.98920 | 4208 ft | 190 kts | 198° |
| 2026-05-05 14:36 | 29.61744 | 34.98357 | 4627 ft | 189 kts | 218° |
| 2026-05-05 14:37 | 29.60594 | 34.97672 | 5073 ft | 189 kts | 195° |
| 2026-05-05 14:37 | 29.59335 | 34.97244 | 5433 ft | 196 kts | 201° |
| 2026-05-05 14:37 | 29.58021 | 34.96776 | 5814 ft | 201 kts | 198° |
| 2026-05-05 14:37 | 29.56636 | 34.96314 | 6094 ft | 213 kts | 198° |
| 2026-05-05 14:38 | 29.55155 | 34.95879 | 6388 ft | 224 kts | 197° |
| 2026-05-05 14:38 | 29.53674 | 34.95121 | 6562 ft | 242 kts | 214° |
| 2026-05-05 14:38 | 29.52041 | 34.94404 | 6959 ft | 262 kts | 198° |
| 2026-05-05 14:38 | 29.50262 | 34.93740 | 7430 ft | 277 kts | 202° |
| 2026-05-05 14:39 | 29.48407 | 34.92999 | 8082 ft | 285 kts | 203° |
| 2026-05-05 14:39 | 29.46544 | 34.92244 | 8954 ft | 284 kts | 203° |
| 2026-05-05 14:39 | 29.44693 | 34.91490 | 9809 ft | 284 kts | 204° |
| 2026-05-05 14:39 | 29.42833 | 34.90729 | 10507 ft | 289 kts | 204° |
| 2026-05-05 14:40 | 29.40891 | 34.89935 | 10885 ft | 307 kts | 204° |
| 2026-05-05 14:40 | 29.38794 | 34.89080 | 11226 ft | 325 kts | 204° |
| 2026-05-05 14:40 | 29.36607 | 34.88189 | 11623 ft | 340 kts | 204° |
| 2026-05-05 14:40 | 29.34383 | 34.87286 | 12397 ft | 340 kts | 204° |
| 2026-05-05 14:41 | 29.32167 | 34.86383 | 13056 ft | 344 kts | 205° |
| 2026-05-05 14:41 | 29.29882 | 34.85455 | 13751 ft | 345 kts | 205° |
| 2026-05-05 14:41 | 29.27622 | 34.84535 | 14039 ft | 350 kts | 205° |
| 2026-05-05 14:41 | 29.25342 | 34.83609 | 13929 ft | 342 kts | 205° |
| 2026-05-05 14:42 | 29.23108 | 34.82700 | 14020 ft | 342 kts | 205° |
| 2026-05-05 14:42 | 29.20863 | 34.81788 | 14003 ft | 342 kts | 205° |
| 2026-05-05 14:42 | 29.18622 | 34.80879 | 13994 ft | 339 kts | 205° |
| 2026-05-05 14:42 | 29.16383 | 34.79970 | 13997 ft | 340 kts | 205° |
| 2026-05-05 14:43 | 29.14156 | 34.79069 | 14001 ft | 339 kts | 206° |
| 2026-05-05 14:43 | 29.11906 | 34.78158 | 13997 ft | 340 kts | 206° |
| 2026-05-05 14:43 | 29.09677 | 34.77255 | 13992 ft | 340 kts | 206° |
| 2026-05-05 14:43 | 29.07441 | 34.76350 | 14001 ft | 340 kts | 205° |
| 2026-05-05 14:44 | 29.05206 | 34.75444 | 13984 ft | 340 kts | 205° |
| 2026-05-05 14:44 | 29.02981 | 34.74546 | 13985 ft | 337 kts | 206° |
| 2026-05-05 14:44 | 29.00760 | 34.73647 | 13995 ft | 338 kts | 206° |
| 2026-05-05 14:44 | 28.98519 | 34.72739 | 13997 ft | 340 kts | 206° |
| 2026-05-05 14:45 | 28.96296 | 34.71841 | 13997 ft | 340 kts | 206° |
| 2026-05-05 14:45 | 28.94063 | 34.70941 | 14006 ft | 341 kts | 206° |
| 2026-05-05 14:45 | 28.91849 | 34.70045 | 13999 ft | 340 kts | 206° |
| 2026-05-05 14:45 | 28.89613 | 34.69145 | 13999 ft | 338 kts | 205° |
| 2026-05-05 14:46 | 28.87398 | 34.68250 | 14007 ft | 340 kts | 206° |
| 2026-05-05 14:46 | 28.85144 | 34.67342 | 14011 ft | 338 kts | 205° |
| 2026-05-05 14:46 | 28.82906 | 34.66441 | 14017 ft | 339 kts | 205° |
| 2026-05-05 14:46 | 28.80681 | 34.65543 | 14011 ft | 341 kts | 205° |
| 2026-05-05 14:47 | 28.78452 | 34.64648 | 14010 ft | 338 kts | 206° |
| 2026-05-05 14:47 | 28.76224 | 34.63750 | 14022 ft | 339 kts | 205° |
| 2026-05-05 14:47 | 28.73992 | 34.62853 | 14015 ft | 340 kts | 206° |
| 2026-05-05 14:47 | 28.71732 | 34.61943 | 14019 ft | 339 kts | 205° |
| 2026-05-05 14:48 | 28.69509 | 34.61051 | 14011 ft | 341 kts | 206° |
| 2026-05-05 14:48 | 28.67285 | 34.60158 | 14008 ft | 339 kts | 206° |
| 2026-05-05 14:48 | 28.65064 | 34.59266 | 14003 ft | 338 kts | 206° |
| 2026-05-05 14:48 | 28.62831 | 34.58370 | 13987 ft | 341 kts | 206° |
| 2026-05-05 14:49 | 28.60601 | 34.57474 | 13989 ft | 340 kts | 206° |
| 2026-05-05 14:49 | 28.58347 | 34.56572 | 13982 ft | 340 kts | 206° |
| 2026-05-05 14:49 | 28.56129 | 34.55683 | 13969 ft | 339 kts | 206° |
| 2026-05-05 14:49 | 28.53877 | 34.54780 | 13963 ft | 339 kts | 206° |
| 2026-05-05 14:50 | 28.51653 | 34.53888 | 13957 ft | 339 kts | 205° |
| 2026-05-05 14:50 | 28.49444 | 34.52940 | 13911 ft | 340 kts | 208° |
| 2026-05-05 14:50 | 28.47217 | 34.51948 | 13281 ft | 348 kts | 207° |
| 2026-05-05 14:50 | 28.44966 | 34.50953 | 12850 ft | 342 kts | 207° |
| 2026-05-05 14:51 | 28.42776 | 34.49986 | 12799 ft | 323 kts | 207° |
| 2026-05-05 14:51 | 28.40753 | 34.49093 | 12404 ft | 302 kts | 207° |
| 2026-05-05 14:51 | 28.38802 | 34.48229 | 11795 ft | 292 kts | 207° |
| 2026-05-05 14:51 | 28.36902 | 34.47390 | 11320 ft | 280 kts | 207° |
| 2026-05-05 14:52 | 28.35125 | 34.46606 | 10910 ft | 269 kts | 207° |
| 2026-05-05 14:52 | 28.33422 | 34.45853 | 10561 ft | 257 kts | 207° |
| 2026-05-05 14:52 | 28.31786 | 34.45132 | 10235 ft | 248 kts | 207° |
| 2026-05-05 14:52 | 28.31266 | 34.44902 | 10142 ft | 249 kts | 207° |
| 2026-05-05 14:53 | 28.29730 | 34.44224 | 9885 ft | 249 kts | 207° |
| 2026-05-05 14:53 | 28.28120 | 34.43514 | 9615 ft | 248 kts | 207° |
| 2026-05-05 14:53 | 28.26499 | 34.42799 | 9366 ft | 249 kts | 207° |
| 2026-05-05 14:53 | 28.24875 | 34.42084 | 9115 ft | 249 kts | 206° |
| 2026-05-05 14:54 | 28.23269 | 34.41375 | 8874 ft | 249 kts | 206° |
| 2026-05-05 14:54 | 28.21643 | 34.40660 | 8633 ft | 249 kts | 206° |
| 2026-05-05 14:54 | 28.20021 | 34.39948 | 8391 ft | 249 kts | 206° |
| 2026-05-05 14:54 | 28.19084 | 34.39535 | 8264 ft | 249 kts | 206° |
| 2026-05-05 14:55 | 28.18380 | 34.39224 | 8163 ft | 250 kts | 206° |
| 2026-05-05 14:55 | 28.16753 | 34.38510 | 7931 ft | 250 kts | 206° |
| 2026-05-05 14:55 | 28.15152 | 34.37805 | 7711 ft | 250 kts | 205° |
| 2026-05-05 14:55 | 28.13524 | 34.37089 | 7478 ft | 250 kts | 205° |
| 2026-05-05 14:56 | 28.11885 | 34.36369 | 7246 ft | 251 kts | 205° |
| 2026-05-05 14:56 | 28.10270 | 34.35661 | 7012 ft | 251 kts | 205° |
| 2026-05-05 14:56 | 28.08648 | 34.34948 | 6779 ft | 250 kts | 204° |
| 2026-05-05 14:56 | 28.07053 | 34.34249 | 6560 ft | 252 kts | 204° |
| 2026-05-05 14:57 | 28.05423 | 34.33532 | 6324 ft | 251 kts | 204° |
| 2026-05-05 14:57 | 28.03774 | 34.32809 | 6087 ft | 250 kts | 204° |
| 2026-05-05 14:57 | 28.02159 | 34.32103 | 5846 ft | 251 kts | 204° |
| 2026-05-05 14:57 | 28.00535 | 34.31392 | 5599 ft | 250 kts | 204° |
| 2026-05-05 14:58 | 27.98910 | 34.30646 | 5332 ft | 248 kts | 212° |
| 2026-05-05 14:58 | 27.97503 | 34.29549 | 5081 ft | 243 kts | 222° |
| 2026-05-05 14:58 | 27.96211 | 34.28353 | 4815 ft | 242 kts | 224° |
| 2026-05-05 14:58 | 27.94915 | 34.27101 | 4553 ft | 241 kts | 224° |
| 2026-05-05 14:59 | 27.93653 | 34.25890 | 4289 ft | 241 kts | 224° |
| 2026-05-05 14:59 | 27.92381 | 34.24685 | 4009 ft | 235 kts | 224° |
| 2026-05-05 14:59 | 27.92006 | 34.24329 | 3921 ft | 233 kts | 224° |
| 2026-05-05 14:59 | 27.90771 | 34.23174 | 3595 ft | 227 kts | 224° |
| 2026-05-05 15:00 | 27.89570 | 34.22060 | 3308 ft | 220 kts | 224° |
| 2026-05-05 15:00 | 27.88766 | 34.21319 | 3193 ft | 216 kts | 224° |
| 2026-05-05 15:00 | 27.87202 | 34.19896 | 2922 ft | 209 kts | 224° |
| 2026-05-05 15:00 | 27.86075 | 34.18878 | 2894 ft | 203 kts | 225° |
| 2026-05-05 15:01 | 27.84971 | 34.17909 | 2853 ft | 202 kts | 219° |
| 2026-05-05 15:01 | 27.83612 | 34.17473 | 2776 ft | 210 kts | 181° |
| 2026-05-05 15:01 | 27.82236 | 34.18013 | 2629 ft | 213 kts | 141° |
| 2026-05-05 15:01 | 27.81401 | 34.19338 | 2544 ft | 206 kts | 102° |
| 2026-05-05 15:02 | 27.81400 | 34.20876 | 2500 ft | 194 kts | 70° |
| 2026-05-05 15:02 | 27.81635 | 34.22398 | 2465 ft | 196 kts | 75° |
| 2026-05-05 15:02 | 27.82240 | 34.23703 | 2381 ft | 183 kts | 37° |
| 2026-05-05 15:02 | 27.83176 | 34.24675 | 2430 ft | 184 kts | 37° |
| 2026-05-05 15:03 | 27.84117 | 34.25643 | 2402 ft | 183 kts | 36° |
| 2026-05-05 15:03 | 27.85065 | 34.26620 | 2414 ft | 184 kts | 36° |
| 2026-05-05 15:03 | 27.86013 | 34.27599 | 2412 ft | 183 kts | 37° |
| 2026-05-05 15:03 | 27.86547 | 34.28152 | 2419 ft | 183 kts | 37° |
| 2026-05-05 15:04 | 27.87486 | 34.29129 | 2426 ft | 183 kts | 36° |
| 2026-05-05 15:04 | 27.88439 | 34.30119 | 2265 ft | 186 kts | 37° |
| 2026-05-05 15:04 | 27.89352 | 34.31074 | 2028 ft | 173 kts | 36° |
| 2026-05-05 15:04 | 27.90199 | 34.31957 | 1833 ft | 161 kts | 35° |
| 2026-05-05 15:05 | 27.91773 | 34.33593 | 1415 ft | 147 kts | 37° |
| 2026-05-05 15:05 | 27.92198 | 34.34037 | 1312 ft | 147 kts | 36° |
| 2026-05-05 15:05 | 27.92919 | 34.34786 | 1132 ft | 145 kts | 37° |
| 2026-05-05 15:06 | 27.93653 | 34.35549 | 941 ft | 144 kts | 37° |
| 2026-05-05 15:06 | 27.94392 | 34.36319 | 746 ft | 143 kts | 38° |
| 2026-05-05 15:06 | 27.95133 | 34.37094 | 553 ft | 142 kts | 39° |
| 2026-05-05 15:06 | 27.95865 | 34.37856 | 355 ft | 142 kts | 40° |
| 2026-05-05 15:07 | 27.96587 | 34.38615 | 181 ft | 141 kts | 41° |
| 2026-05-05 15:07 | 27.97235 | 34.39290 | 170 ft | 102 kts | 43° |
| 2026-05-05 15:07 | 27.97643 | 34.39702 | 163 ft | 55 kts | 39° |
| 2026-05-05 15:07 | 27.97849 | 34.39889 | 163 ft | 32 kts | 349° |
| 2026-05-05 15:08 | 27.98005 | 34.39729 | 170 ft | 28 kts | 313° |
| 2026-05-05 15:08 | 27.98130 | 34.39578 | 177 ft | 24 kts | 313° |
| 2026-05-05 15:08 | 27.98220 | 34.39469 | 183 ft | 8 kts | 311° |
| 2026-05-05 15:08 | 27.98228 | 34.39421 | 186 ft | 5 kts | 259° |
| 2026-05-05 15:09 | 27.98212 | 34.39385 | 187 ft | 6 kts | 230° |
| 2026-05-05 15:09 | 27.98170 | 34.39338 | 189 ft | 10 kts | 224° |
| 2026-05-05 15:09 | 27.98128 | 34.39283 | 191 ft | 8 kts | 255° |
| 2026-05-05 15:09 | 27.98129 | 34.39253 | 193 ft | 3 kts | 285° |
| 2026-05-05 15:10 | 27.98140 | 34.39228 | 194 ft | 0 kts | 302° |
| 2026-05-05 15:10 | 27.98144 | 34.39222 | 195 ft | 0 kts | 306° |
| 2026-05-05 15:10 | 27.98147 | 34.39218 | 195 ft | 0 kts | 307° |
| 2026-05-05 15:10 | 27.98148 | 34.39216 | 195 ft | 0 kts | 307° |
| 2026-05-05 15:11 | 27.98149 | 34.39215 | 195 ft | 0 kts | 308° |